createdAt,value
2019-04-21T00:01:24.321Z,98773.00
2019-04-21T00:05:49.900Z,98770.00
2019-04-21T00:13:42.589Z,98762.00
2019-04-21T00:17:35.051Z,98752.00
2019-04-21T00:21:43.328Z,98744.00
2019-04-21T00:25:52.570Z,98742.00
2019-04-21T00:30:04.514Z,98738.00
2019-04-21T00:33:48.099Z,98732.00
2019-04-21T00:38:08.303Z,98712.00
2019-04-21T00:42:11.298Z,98709.00
2019-04-21T00:46:04.869Z,98700.00
2019-04-21T00:50:18.645Z,98698.00
2019-04-21T00:54:51.955Z,98696.00
2019-04-21T00:58:39.589Z,98696.00
2019-04-21T01:02:52.906Z,98698.00
2019-04-21T01:06:47.947Z,98687.00
2019-04-21T01:10:43.947Z,98686.00
2019-04-21T01:14:55.378Z,98686.00
2019-04-21T01:18:55.254Z,98681.00
2019-04-21T01:22:37.504Z,98673.00
2019-04-21T01:26:49.505Z,98675.00
2019-04-21T01:31:03.426Z,98666.00
2019-04-21T01:35:02.669Z,98668.00
2019-04-21T01:39:13.490Z,98658.00
2019-04-21T01:43:09.775Z,98653.00
2019-04-21T01:47:11.833Z,98658.00
2019-04-21T01:51:12.933Z,98647.00
2019-04-21T01:55:27.793Z,98643.00
2019-04-21T01:59:18.503Z,98640.00
2019-04-21T02:03:47.019Z,98642.00
2019-04-21T02:07:34.251Z,98643.00
2019-04-21T02:11:43.260Z,98640.00
2019-04-21T02:15:46.472Z,98644.00
2019-04-21T02:19:37.499Z,98630.00
2019-04-21T02:23:54.581Z,98627.00
2019-04-21T02:27:52.373Z,98624.00
2019-04-21T02:32:14.430Z,98604.00
2019-04-21T02:36:27.458Z,98614.00
2019-04-21T02:40:14.615Z,98614.00
2019-04-21T02:44:23.403Z,98607.00
2019-04-21T02:48:28.244Z,98603.00
2019-04-21T02:52:23.794Z,98585.00
2019-04-21T02:56:24.744Z,98579.00
2019-04-21T03:12:38.130Z,98578.00
2019-04-21T03:20:52.974Z,98554.00
2019-04-21T03:28:54.537Z,98552.00
2019-04-21T03:37:07.659Z,98558.00
2019-04-21T03:41:05.118Z,98554.00
2019-04-21T03:49:19.198Z,98546.00
2019-04-21T03:53:09.672Z,98543.00
2019-04-21T03:57:46.360Z,98539.00
2019-04-21T04:01:22.031Z,98542.00
2019-04-21T04:06:02.055Z,98540.00
2019-04-21T04:09:52.379Z,98541.00
2019-04-21T04:14:20.344Z,98542.00
2019-04-21T04:17:56.427Z,98537.00
2019-04-21T04:22:09.204Z,98537.00
2019-04-21T04:25:59.653Z,98531.00
2019-04-21T04:30:07.642Z,98534.00
2019-04-21T04:38:20.157Z,98535.00
2019-04-21T04:42:45.845Z,98525.00
2019-04-21T04:46:35.366Z,98531.00
2019-04-21T04:50:45.312Z,98525.00
2019-04-21T04:54:47.599Z,98534.00
2019-04-21T04:59:10.779Z,98524.00
2019-04-21T05:02:41.637Z,98516.00
2019-04-21T05:10:57.368Z,98521.00
2019-04-21T05:14:53.330Z,98520.00
2019-04-21T05:19:02.284Z,98524.00
2019-04-21T05:22:54.471Z,98525.00
2019-04-21T05:26:48.088Z,98525.00
2019-04-21T05:31:09.067Z,98525.00
2019-04-21T05:35:10.463Z,98529.00
2019-04-21T05:39:14.618Z,98534.00
2019-04-21T05:43:25.895Z,98535.00
2019-04-21T05:51:25.319Z,98531.00
2019-04-21T05:55:42.679Z,98528.00
2019-04-21T05:59:32.647Z,98529.00
2019-04-21T06:03:44.763Z,98540.00
2019-04-21T06:07:41.520Z,98523.00
2019-04-21T06:11:45.779Z,98517.00
2019-04-21T06:15:54.701Z,98524.00
2019-04-21T06:23:49.981Z,98518.00
2019-04-21T06:27:59.975Z,98515.00
2019-04-21T06:36:23.957Z,98514.00
2019-04-21T06:44:13.228Z,98506.00
2019-04-21T06:48:20.760Z,98500.00
2019-04-21T06:52:44.775Z,98504.00
2019-04-21T06:56:27.152Z,98504.00
2019-04-21T07:00:21.095Z,98511.00
2019-04-21T07:12:32.295Z,98503.00
2019-04-21T07:16:41.560Z,98504.00
2019-04-21T07:20:38.017Z,98492.00
2019-04-21T07:25:00.196Z,98501.00
2019-04-21T07:28:49.894Z,98498.00
2019-04-21T07:32:49.836Z,98480.00
2019-04-21T07:40:48.471Z,98482.00
2019-04-21T07:44:50.846Z,98477.00
2019-04-21T07:49:01.694Z,98469.00
2019-04-21T07:53:25.126Z,98470.00
2019-04-21T07:57:15.543Z,98473.00
2019-04-21T08:01:28.840Z,98468.00
2019-04-21T08:05:28.116Z,98467.00
2019-04-21T08:09:26.156Z,98461.00
2019-04-21T08:13:40.081Z,98470.00
2019-04-21T08:17:36.505Z,98461.00
2019-04-21T08:21:43.332Z,98465.00
2019-04-21T08:25:48.582Z,98458.00
2019-04-21T08:29:47.665Z,98457.00
2019-04-21T08:33:55.659Z,98454.00
2019-04-21T08:37:48.093Z,98449.00
2019-04-21T08:42:01.958Z,98454.00
2019-04-21T08:46:13.024Z,98441.00
2019-04-21T08:50:00.333Z,98447.00
2019-04-21T08:58:30.593Z,98447.00
2019-04-21T09:02:35.264Z,98441.00
2019-04-21T09:06:52.574Z,98436.00
2019-04-21T09:10:35.609Z,98440.00
2019-04-21T09:14:45.386Z,98436.00
2019-04-21T09:18:38.061Z,98433.00
2019-04-21T09:22:44.269Z,98414.00
2019-04-21T09:26:48.093Z,98415.00
2019-04-21T09:30:43.390Z,98411.00
2019-04-21T09:34:43.825Z,98407.00
2019-04-21T09:38:50.720Z,98403.00
2019-04-21T09:43:04.798Z,98404.00
2019-04-21T09:47:05.127Z,98411.00
2019-04-21T09:51:06.543Z,98404.00
2019-04-21T09:55:13.910Z,98401.00
2019-04-21T09:59:18.029Z,98394.00
2019-04-21T10:03:16.244Z,98396.00
2019-04-21T10:07:26.402Z,98379.00
2019-04-21T10:11:21.080Z,98382.00
2019-04-21T10:15:25.000Z,98377.00
2019-04-21T10:19:27.451Z,98373.00
2019-04-21T10:23:29.375Z,98369.00
2019-04-21T10:27:31.525Z,98358.00
2019-04-21T10:31:32.584Z,98361.00
2019-04-21T10:35:33.556Z,98351.00
2019-04-21T10:39:35.697Z,98351.00
2019-04-21T10:43:37.486Z,98340.00
2019-04-21T10:47:40.936Z,98337.00
2019-04-21T10:51:43.287Z,98337.00
2019-04-21T10:56:01.545Z,98335.00
2019-04-21T10:59:50.745Z,98332.00
2019-04-21T11:03:55.178Z,98333.00
2019-04-21T11:08:11.164Z,98335.00
2019-04-21T11:11:59.934Z,98334.00
2019-04-21T11:16:01.397Z,98321.00
2019-04-21T11:20:04.631Z,98313.00
2019-04-21T11:24:06.073Z,98312.00
2019-04-21T11:28:07.314Z,98315.00
2019-04-21T11:32:09.225Z,98311.00
2019-04-21T11:36:11.158Z,98300.00
2019-04-21T11:40:16.290Z,98297.00
2019-04-21T11:44:16.319Z,98287.00
2019-04-21T11:48:26.202Z,98291.00
2019-04-21T11:52:27.313Z,98289.00
2019-04-21T11:56:28.466Z,98286.00
2019-04-21T12:00:29.570Z,98279.00
2019-04-21T12:04:31.685Z,98280.00
2019-04-21T12:08:39.285Z,98278.00
2019-04-21T12:12:37.121Z,98262.00
2019-04-21T12:16:39.147Z,98258.00
2019-04-21T12:20:40.229Z,98255.00
2019-04-21T12:24:41.347Z,98245.00
2019-04-21T12:28:43.757Z,98245.00
2019-04-21T12:32:46.815Z,98249.00
2019-04-21T12:36:48.722Z,98240.00
2019-04-21T12:40:50.732Z,98233.00
2019-04-21T12:44:52.245Z,98237.00
2019-04-21T12:48:53.830Z,98228.00
2019-04-21T12:52:55.850Z,98226.00
2019-04-21T12:56:56.899Z,98219.00
2019-04-21T13:00:58.913Z,98212.00
2019-04-21T13:04:59.970Z,98198.00
2019-04-21T13:09:05.284Z,98200.00
2019-04-21T13:13:03.858Z,98181.00
2019-04-21T13:17:05.622Z,98181.00
2019-04-21T13:21:07.233Z,98178.00
2019-04-21T13:25:09.687Z,98173.00
2019-04-21T13:29:12.181Z,98175.00
2019-04-21T13:33:13.591Z,98167.00
2019-04-21T13:37:15.283Z,98165.00
2019-04-21T13:41:32.602Z,98163.00
2019-04-21T13:45:24.096Z,98154.00
2019-04-21T13:49:25.360Z,98145.00
2019-04-21T13:53:27.109Z,98140.00
2019-04-21T13:57:30.381Z,98131.00
2019-04-21T14:01:31.835Z,98137.00
2019-04-21T14:05:32.955Z,98122.00
2019-04-21T14:09:40.227Z,98116.00
2019-04-21T14:13:36.654Z,98110.00
2019-04-21T14:17:39.125Z,98117.00
2019-04-21T14:21:41.258Z,98108.00
2019-04-21T14:25:43.828Z,98097.00
2019-04-21T14:29:45.935Z,98103.00
2019-04-21T14:33:47.944Z,98086.00
2019-04-21T14:37:49.050Z,98087.00
2019-04-21T14:41:50.559Z,98087.00
2019-04-21T14:45:54.722Z,98081.00
2019-04-21T14:50:11.329Z,98082.00
2019-04-21T14:54:33.123Z,98074.00
2019-04-21T14:58:35.059Z,98062.00
2019-04-21T15:02:36.244Z,98059.00
2019-04-21T15:06:37.324Z,98060.00
2019-04-21T15:10:39.002Z,98055.00
2019-04-21T15:14:40.322Z,98053.00
2019-04-21T15:18:42.155Z,98048.00
2019-04-21T15:22:44.198Z,98051.00
2019-04-21T15:26:46.459Z,98039.00
2019-04-21T15:30:47.942Z,98043.00
2019-04-21T15:34:49.898Z,98034.00
2019-04-21T15:38:51.955Z,98033.00
2019-04-21T15:42:54.596Z,98027.00
2019-04-21T15:46:57.646Z,98023.00
2019-04-21T15:50:59.650Z,98014.00
2019-04-21T15:55:10.603Z,98014.00
2019-04-21T15:59:19.863Z,98009.00
2019-04-21T16:03:20.910Z,98003.00
2019-04-21T16:07:22.328Z,97994.00
2019-04-21T16:11:24.045Z,97994.00
2019-04-21T16:15:26.279Z,97986.00
2019-04-21T16:19:29.158Z,97982.00
2019-04-21T16:23:30.772Z,97978.00
2019-04-21T16:27:33.029Z,97980.00
2019-04-21T16:31:34.433Z,97976.00
2019-04-21T16:35:35.679Z,97970.00
2019-04-21T16:39:37.787Z,97964.00
2019-04-21T16:43:39.117Z,97965.00
2019-04-21T16:47:40.239Z,97960.00
2019-04-21T16:51:42.298Z,97957.00
2019-04-21T16:55:48.979Z,97956.00
2019-04-21T16:59:52.666Z,97951.00
2019-04-21T17:03:54.646Z,97941.00
2019-04-21T17:07:55.797Z,97936.00
2019-04-21T17:11:59.997Z,97928.00
2019-04-21T17:16:14.947Z,97931.00
2019-04-21T17:20:19.287Z,97928.00
2019-04-21T17:24:10.548Z,97924.00
2019-04-21T17:28:12.183Z,97924.00
2019-04-21T17:32:14.194Z,97925.00
2019-04-21T17:36:16.808Z,97923.00
2019-04-21T17:40:26.167Z,97919.00
2019-04-21T17:44:27.764Z,97925.00
2019-04-21T17:48:29.306Z,97907.00
2019-04-21T17:52:41.393Z,97910.00
2019-04-21T17:57:04.399Z,97913.00
2019-04-21T18:01:10.302Z,97913.00
2019-04-21T18:05:08.650Z,97912.00
2019-04-21T18:09:18.303Z,97914.00
2019-04-21T18:12:59.008Z,97918.00
2019-04-21T18:16:56.154Z,97922.00
2019-04-21T18:21:12.430Z,97916.00
2019-04-21T18:25:27.968Z,97921.00
2019-04-21T18:29:19.066Z,97921.00
2019-04-21T18:33:25.377Z,97921.00
2019-04-21T18:37:38.435Z,97924.00
2019-04-21T18:41:42.757Z,97924.00
2019-04-21T18:46:11.739Z,97918.00
2019-04-21T18:49:52.214Z,97914.00
2019-04-21T18:54:19.977Z,97922.00
2019-04-21T18:57:59.050Z,97918.00
2019-04-21T19:02:06.439Z,97915.00
2019-04-21T19:06:09.824Z,97923.00
2019-04-21T19:10:26.653Z,97925.00
2019-04-21T19:14:31.655Z,97926.00
2019-04-21T19:22:38.655Z,97921.00
2019-04-21T19:26:46.354Z,97923.00
2019-04-21T19:30:50.837Z,97925.00
2019-04-21T19:34:35.901Z,97914.00
2019-04-21T19:38:45.726Z,97921.00
2019-04-21T19:42:47.999Z,97915.00
2019-04-21T19:46:58.701Z,97915.00
2019-04-21T19:51:02.757Z,97912.00
2019-04-21T19:54:48.605Z,97905.00
2019-04-21T19:58:49.244Z,97908.00
2019-04-21T20:02:52.315Z,97903.00
2019-04-21T20:07:02.748Z,97897.00
2019-04-21T20:11:14.623Z,97896.00
2019-04-21T20:15:25.553Z,97897.00
2019-04-21T20:19:07.784Z,97891.00
2019-04-21T20:23:14.981Z,97893.00
2019-04-21T20:27:15.588Z,97884.00
2019-04-21T20:31:30.096Z,97891.00
2019-04-21T20:35:42.959Z,97892.00
2019-04-21T20:39:23.211Z,97888.00
2019-04-21T20:43:43.983Z,97892.00
2019-04-21T20:47:34.965Z,97884.00
2019-04-21T20:51:45.214Z,97883.00
2019-04-21T20:55:48.568Z,97887.00
2019-04-21T20:59:43.818Z,97887.00
2019-04-21T21:03:51.559Z,97884.00
2019-04-21T21:08:04.488Z,97877.00
2019-04-21T21:12:19.169Z,97881.00
2019-04-21T21:16:13.558Z,97882.00
2019-04-21T21:20:16.017Z,97873.00
2019-04-21T21:24:08.648Z,97870.00
2019-04-21T21:28:07.545Z,97869.00
2019-04-21T21:32:27.574Z,97868.00
2019-04-21T21:36:19.213Z,97859.00
2019-04-21T21:40:26.752Z,97859.00
2019-04-21T21:44:16.688Z,97872.00
2019-04-21T21:48:26.350Z,97861.00
2019-04-21T21:52:32.759Z,97861.00
2019-04-21T21:56:20.605Z,97852.00
2019-04-21T22:00:25.905Z,97854.00
2019-04-21T22:04:30.713Z,97849.00
2019-04-21T22:08:30.460Z,97846.00
2019-04-21T22:12:40.418Z,97844.00
2019-04-21T22:16:43.193Z,97840.00
2019-04-21T22:20:54.832Z,97844.00
2019-04-21T22:24:54.474Z,97847.00
2019-04-21T22:28:43.608Z,97845.00
2019-04-21T22:32:52.746Z,97855.00
2019-04-21T22:36:58.961Z,97863.00
2019-04-21T22:41:02.984Z,97850.00
2019-04-21T22:44:54.523Z,97843.00
2019-04-21T22:48:59.701Z,97845.00
2019-04-21T22:53:05.854Z,97838.00
2019-04-21T22:57:11.522Z,97842.00
2019-04-21T23:01:07.745Z,97830.00
2019-04-21T23:05:09.885Z,97839.00
2019-04-21T23:09:12.912Z,97844.00
2019-04-21T23:13:19.856Z,97834.00
2019-04-21T23:17:32.437Z,97843.00
2019-04-21T23:21:36.363Z,97842.00
2019-04-21T23:25:40.038Z,97828.00
2019-04-21T23:29:52.811Z,97835.00
2019-04-21T23:33:29.521Z,97820.00
2019-04-21T23:37:35.913Z,97819.00
2019-04-21T23:41:41.413Z,97812.00
2019-04-21T23:45:40.898Z,97823.00
2019-04-21T23:49:51.072Z,97809.00
2019-04-21T23:53:43.649Z,97817.00
2019-04-21T23:57:48.025Z,97804.00
